DW8529 Weather Reports


time (UTC)temp
C
wind
direction
speed
KPH
gust
KPH
rain 1hr
cm
rain 24hr
cm
rain mn
cm
humidity
%
barometer
mb
20190818073604 16 143 4.8 11.3 0.00 0.05 0.00 95 1003.5
20190818073104 16 152 3.2 8.0 0.00 0.05 0.00 95 1003.6
20190818072604 16 168 4.8 12.9 0.00 0.05 0.00 95 1003.8
20190818072104 16 170 4.8 9.7 0.00 0.05 0.00 95 1003.8
20190818071604 16 154 4.8 9.7 0.00 0.05 0.00 95 1003.8
20190818071103 16 169 1.6 4.8 0.00 0.05 0.00 95 1003.9
20190818070604 16 171 1.6 4.8 0.00 0.05 0.00 95 1004.0
20190818070103 16 200 4.8 8.0 0.00 0.05 0.00 95 1004.0
20190818065604 16 199 4.8 9.7 0.00 0.05 0.00 95 1004.0
20190818065104 16 185 4.8 9.7 0.00 0.05 0.00 95 1003.9
20190818064604 16 191 6.4 12.9 0.00 0.08 0.00 95 1003.8
20190818063604 16 188 8.0 11.3 0.00 0.08 0.00 95 1003.9
20190818063104 16 172 6.4 14.5 0.00 0.08 0.00 95 1004.0
20190818062604 16 176 6.4 11.3 0.00 0.10 0.00 95 1004.1
20190818062103 16 171 4.8 8.0 0.00 0.10 0.00 95 1004.0
20190818061604 16 196 8.0 16.1 0.00 0.10 0.00 95 1004.1
20190818061104 16 181 4.8 12.9 0.00 0.10 0.00 95 1004.1
20190818060604 16 190 4.8 12.9 0.00 0.10 0.00 95 1004.0
20190818060104 16 177 4.8 9.7 0.00 0.10 0.00 95 1003.9
20190818055604 16 176 4.8 11.3 0.00 0.10 0.00 95 1004.0
20190818055104 15 173 3.2 4.8 0.00 0.10 0.00 95 1003.9
20190818054604 15 165 3.2 8.0 0.00 0.10 0.00 95 1003.7
20190818054104 15 152 3.2 4.8 0.00 0.10 0.00 95 1003.9
20190818053604 15 190 3.2 4.8 0.00 0.10 0.00 95 1004.0
20190818053104 15 156 1.6 4.8 0.00 0.10 0.00 95 1004.0
20190818052604 15 155 1.6 4.8 0.00 0.13 0.00 95 1004.1
20190818052104 15 155 1.6 3.2 0.00 0.13 0.00 95 1004.1
20190818051604 14 155 1.6 4.8 0.00 0.15 0.00 95 1004.3
20190818051104 14 176 1.6 4.8 0.00 0.20 0.00 95 1004.4
20190818050604 13 194 1.6 3.2 0.00 0.20 0.00 95 1004.4
20190818050104 13 194 0.0 1.6 0.00 0.23 0.00 95 1004.4
20190818045603 13 194 0.0 0.0 0.00 0.23 0.00 94 1004.4
20190818045104 13 194 0.0 0.0 0.00 0.23 0.00 95 1004.4
20190818044604 13 194 0.0 0.0 0.00 0.23 0.00 94 1004.5
20190818044104 13 194 0.0 0.0 0.00 0.23 0.00 95 1004.5
20190818043604 13 194 0.0 0.0 0.00 0.23 0.00 94 1004.4
20190818043104 12 194 0.0 0.0 0.00 0.23 0.00 94 1004.4
20190818042604 12 194 0.0 0.0 0.00 0.23 0.00 94 1004.4
20190818042104 12 194 0.0 1.6 0.00 0.25 0.00 94 1004.4
20190818041604 12 194 1.6 3.2 0.00 0.25 0.00 94 1004.3
20190818041104 12 194 0.0 0.0 0.00 0.25 0.00 94 1004.3
20190818040604 12 194 0.0 1.6 0.00 0.25 0.00 94 1004.1
20190818040104 12 194 0.0 0.0 0.00 0.25 0.00 94 1004.1
20190818035604 12 194 0.0 1.6 0.00 0.28 0.00 94 1004.1
20190818035104 12 194 0.0 1.6 0.00 0.28 0.00 94 1004.1
20190818034605 12 194 0.0 1.6 0.00 0.28 0.00 94 1004.0
20190818034104 12 194 0.0 0.0 0.00 0.28 0.00 94 1003.8
20190818033604 12 194 0.0 1.6 0.00 0.30 0.00 94 1003.8
20190818033104 12 194 0.0 1.6 0.00 0.30 0.00 94 1003.9
20190818032604 12 194 0.0 0.0 0.00 0.33 0.00 94 1004.0
20190818032104 12 194 0.0 0.0 0.00 0.33 0.00 94 1004.1
20190818031604 11 194 0.0 0.0 0.00 0.33 0.00 94 1004.1
20190818031104 11 194 0.0 0.0 0.00 0.36 0.00 94 1004.2
20190818030604 11 194 0.0 0.0 0.00 0.36 0.00 93 1004.1
20190818030104 12 194 0.0 0.0 0.00 0.38 0.00 94 1004.2
20190818025604 12 194 0.0 0.0 0.00 0.41 0.00 94 1004.1
20190818025104 12 194 0.0 0.0 0.00 0.41 0.00 94 1004.3
20190818024604 12 194 0.0 0.0 0.00 0.43 0.00 94 1004.3
20190818024104 12 194 0.0 0.0 0.00 0.43 0.00 94 1004.2
20190818023604 12 194 0.0 0.0 0.00 0.43 0.00 94 1004.2
20190818023104 12 194 0.0 0.0 0.00 0.43 0.00 94 1004.5
20190818022604 12 194 0.0 0.0 0.00 0.46 0.00 94 1004.6
20190818022104 12 194 0.0 0.0 0.00 0.46 0.00 94 1004.7
20190818021604 12 194 0.0 0.0 0.00 0.46 0.00 94 1004.6
20190818021104 12 194 0.0 0.0 0.00 0.48 0.00 94 1004.5
20190818020604 12 194 0.0 0.0 0.00 0.48 0.00 94 1004.6
20190818020104 12 194 0.0 0.0 0.00 0.48 0.00 94 1004.8
20190818015604 12 194 0.0 0.0 0.00 0.48 0.00 94 1004.9
20190818015104 12 194 0.0 0.0 0.00 0.48 0.00 93 1004.9
20190818014604 12 194 0.0 0.0 0.00 0.48 0.00 93 1004.9
20190818014105 12 194 0.0 0.0 0.00 0.48 0.00 93 1005.0
20190818013604 12 194 0.0 0.0 0.00 0.51 0.00 93 1005.0
20190818013105 12 194 0.0 0.0 0.00 0.51 0.00 93 1005.0
20190818012604 12 194 0.0 0.0 0.00 0.51 0.00 93 1005.0
20190818012104 13 194 1.6 1.6 0.00 0.51 0.00 93 1005.1
20190818011604 13 194 0.0 0.0 0.00 0.51 0.00 93 1005.2
20190818011104 13 194 0.0 0.0 0.00 0.51 0.00 93 1005.2
20190818010604 13 194 0.0 0.0 0.00 0.51 0.00 93 1005.2
20190818010105 13 194 0.0 0.0 0.00 0.51 0.00 93 1005.1
20190818005604 13 194 0.0 0.0 0.00 0.51 0.00 93 1005.1
20190818005104 13 194 0.0 0.0 0.00 0.51 0.00 93 1005.0
20190818004604 13 194 0.0 0.0 0.00 0.51 0.00 93 1004.9
20190818004104 13 194 0.0 0.0 0.00 0.51 0.00 93 1004.9
20190818003604 13 194 0.0 0.0 0.00 0.51 0.00 92 1004.9
20190818003104 14 194 0.0 0.0 0.00 0.51 0.00 93 1004.9
20190818002604 14 194 0.0 1.6 0.00 0.51 0.00 93 1004.9
20190818002104 14 194 1.6 3.2 0.00 0.51 0.00 93 1004.9
20190818001604 14 194 1.6 3.2 0.00 0.51 0.00 92 1004.9
20190818001104 14 194 1.6 3.2 0.00 0.51 0.00 93 1005.0
20190818000605 14 194 1.6 4.8 0.00 0.51 0.00 93 1005.1
20190818000104 14 194 1.6 3.2 0.00 0.51 0.00 92 1005.5
20190817235604 15 194 3.2 4.8 0.00 0.51 0.00 92 1005.3
20190817235105 15 169 1.6 4.8 0.00 0.51 0.00 92 1005.3
20190817234604 15 177 3.2 8.0 0.00 0.51 0.00 92 1005.1
20190817234104 15 180 3.2 4.8 0.00 0.51 0.00 92 1005.1
20190817233604 15 180 1.6 3.2 0.00 0.51 0.00 92 1005.1
20190817233106 15 180 1.6 3.2 0.00 0.51 0.00 92 1005.0
20190817232605 15 180 1.6 3.2 0.00 0.51 0.00 92 1005.2
20190817232104 15 180 1.6 3.2 0.00 0.51 0.00 92 1005.2
20190817231605 15 180 1.6 4.8 0.00 0.51 0.00 92 1005.2
20190817231104 15 180 1.6 3.2 0.00 0.51 0.00 92 1005.0
20190817230604 15 180 0.0 1.6 0.00 0.51 0.00 92 1005.1
20190817230105 15 180 1.6 3.2 0.00 0.51 0.00 92 1005.0
20190817225604 15 180 1.6 4.8 0.00 0.51 0.00 91 1004.8
20190817225105 15 180 1.6 4.8 0.00 0.51 0.00 91 1004.6
20190817224604 15 183 1.6 4.8 0.00 0.51 0.00 91 1004.8
20190817224105 15 177 1.6 4.8 0.03 0.51 0.00 91 1004.7
20190817223605 15 188 1.6 3.2 0.05 0.51 0.00 91 1004.6
20190817223104 15 188 1.6 3.2 0.05 0.51 0.00 91 1004.9
20190817222604 15 188 1.6 4.8 0.05 0.51 0.00 90 1004.9
20190817222104 15 188 3.2 4.8 0.05 0.51 0.00 90 1004.8
20190817221605 16 188 3.2 4.8 0.05 0.51 0.00 90 1004.7
20190817221104 16 186 3.2 4.8 0.05 0.51 0.00 90 1004.9
20190817220604 16 182 3.2 9.7 0.05 0.51 0.00 90 1004.8
20190817220105 16 165 4.8 8.0 0.05 0.51 0.00 90 1004.7
20190817215604 16 153 6.4 14.5 0.05 0.51 0.00 89 1004.9
20190817215105 16 154 8.0 14.5 0.05 0.51 0.51 90 1005.0
20190817214604 16 163 8.0 11.3 0.05 0.51 0.51 90 1004.9
20190817214105 16 165 4.8 9.7 0.03 0.48 0.48 90 1005.0
20190817213605 16 158 6.4 14.5 0.00 0.46 0.46 90 1005.1
20190817213104 16 160 4.8 12.9 0.00 0.46 0.46 90 1005.0
20190817212604 16 171 3.2 8.0 0.00 0.46 0.46 90 1004.8
20190817212104 16 187 3.2 4.8 0.00 0.46 0.46 89 1005.0
20190817211605 16 210 1.6 3.2 0.00 0.46 0.46 89 1004.7
20190817211105 16 210 1.6 4.8 0.00 0.46 0.46 89 1005.0
20190817210605 15 209 4.8 8.0 0.00 0.46 0.46 90 1005.1
20190817210104 15 219 3.2 4.8 0.00 0.46 0.46 89 1004.7
20190817205605 15 233 1.6 3.2 0.00 0.46 0.46 89 1004.4
20190817205104 15 233 0.0 1.6 0.00 0.46 0.46 88 1004.3
20190817204605 16 233 1.6 1.6 0.00 0.46 0.46 87 1004.1
20190817204104 16 233 0.0 3.2 0.00 0.46 0.46 88 1004.1
20190817203604 16 233 0.0 3.2 0.00 0.46 0.46 88 1004.3
20190817203104 15 233 0.0 0.0 0.00 0.46 0.46 87 1004.3
20190817202604 16 233 0.0 0.0 0.00 0.46 0.46 87 1004.2
20190817202105 16 233 0.0 0.0 0.00 0.46 0.46 86 1004.3
20190817201605 16 233 0.0 1.6 0.00 0.46 0.46 85 1004.2
20190817201104 16 233 0.0 1.6 0.00 0.46 0.46 84 1004.4
20190817200604 16 233 0.0 0.0 0.00 0.46 0.46 84 1004.4
20190817200104 16 233 0.0 1.6 0.00 0.46 0.46 84 1004.4
20190817195605 16 233 1.6 3.2 0.00 0.46 0.46 84 1004.4
20190817195105 16 233 1.6 1.6 0.00 0.46 0.46 84 1004.3
20190817194605 16 233 1.6 3.2 0.00 0.46 0.46 84 1004.5
20190817194105 16 233 1.6 3.2 0.00 0.46 0.46 84 1004.4
20190817193605 16 233 1.6 3.2 0.00 0.46 0.46 84 1004.6
20190817193105 16 233 1.6 3.2 0.00 0.46 0.46 82 1004.6
20190817192604 16 233 1.6 3.2 0.00 0.46 0.46 81 1004.4
20190817192105 16 233 1.6 3.2 0.00 0.46 0.46 81 1004.6
20190817191604 16 233 1.6 3.2 0.00 0.46 0.46 81 1004.7
20190817191104 16 233 1.6 3.2 0.00 0.46 0.46 81 1004.6
20190817190604 17 233 1.6 1.6 0.00 0.46 0.46 80 1004.8
20190817190105 16 233 0.0 0.0 0.00 0.46 0.46 80 1004.8
20190817185604 16 233 0.0 1.6 0.00 0.46 0.46 81 1004.7
20190817185105 16 233 0.0 1.6 0.00 0.46 0.46 80 1004.7
20190817184604 16 233 0.0 3.2 0.00 0.46 0.46 80 1004.7
20190817184105 17 233 3.2 4.8 0.00 0.46 0.46 79 1004.7
20190817183605 17 229 3.2 4.8 0.00 0.46 0.46 79 1004.7
20190817183104 17 226 3.2 4.8 0.00 0.46 0.46 79 1004.7
20190817182605 17 236 1.6 3.2 0.00 0.46 0.46 80 1004.7
20190817182104 17 236 3.2 4.8 0.00 0.46 0.46 78 1004.8
20190817181604 17 244 6.4 11.3 0.00 0.46 0.46 77 1004.8
20190817181105 17 246 4.8 14.5 0.00 0.46 0.46 76 1004.8
20190817180604 18 239 11.3 19.3 0.00 0.46 0.46 75 1004.9
20190817180105 18 243 11.3 22.5 0.00 0.46 0.46 75 1004.7
20190817175604 18 237 11.3 25.7 0.00 0.46 0.46 75 1004.6
20190817175105 18 240 11.3 19.3 0.00 0.46 0.46 77 1004.6
20190817174605 18 236 11.3 22.5 0.00 0.46 0.46 78 1004.5
20190817174104 19 246 16.1 20.9 0.00 0.46 0.46 78 1004.4
20190817173604 19 250 16.1 25.7 0.00 0.46 0.46 77 1004.5
20190817173105 20 263 16.1 25.7 0.00 0.46 0.46 78 1004.4
20190817172605 20 247 19.3 29.0 0.00 0.46 0.46 78 1004.6
20190817172104 19 244 14.5 22.5 0.00 0.46 0.46 78 1004.4
20190817171605 19 239 16.1 20.9 0.00 0.46 0.46 78 1004.6
20190817171105 19 235 14.5 22.5 0.00 0.46 0.46 79 1004.5
20190817170605 19 245 16.1 24.1 0.00 0.46 0.46 78 1004.6
20190817170105 20 233 14.5 22.5 0.00 0.46 0.46 79 1004.6
20190817165605 20 228 14.5 24.1 0.00 0.46 0.46 78 1004.6
20190817165105 20 232 9.7 20.9 0.00 0.46 0.46 80 1004.3
20190817164605 20 235 14.5 32.2 0.00 0.46 0.46 79 1004.5
20190817164105 20 237 11.3 20.9 0.00 0.46 0.46 80 1004.5
20190817163605 20 244 14.5 19.3 0.00 0.46 0.46 81 1004.4
20190817163105 19 230 11.3 24.1 0.00 0.46 0.46 81 1004.4
20190817162605 19 233 17.7 24.1 0.00 0.46 0.46 79 1004.3
20190817162104 20 241 14.5 29.0 0.00 0.46 0.46 78 1004.3
20190817161604 20 240 14.5 29.0 0.00 0.46 0.46 78 1004.4
20190817161105 20 245 25.7 33.8 0.00 0.46 0.46 77 1004.2
20190817160604 20 236 22.5 32.2 0.00 0.46 0.46 78 1004.3
20190817160104 20 228 20.9 32.2 0.00 0.46 0.46 79 1004.5
20190817155605 20 228 17.7 29.0 0.00 0.46 0.46 80 1004.5
20190817155105 20 216 20.9 32.2 0.00 0.46 0.46 80 1004.6
20190817154605 20 227 16.1 27.4 0.00 0.46 0.46 82 1004.5
20190817154105 20 232 14.5 25.7 0.00 0.46 0.46 82 1004.5
20190817153605 19 221 16.1 24.1 0.00 0.46 0.46 83 1004.5
20190817153105 19 230 14.5 25.7 0.00 0.46 0.46 83 1004.4
20190817152604 19 216 14.5 24.1 0.00 0.46 0.46 83 1004.3
20190817152105 19 206 16.1 24.1 0.00 0.46 0.46 83 1004.3
20190817151605 19 201 19.3 29.0 0.00 0.46 0.46 83 1004.4
20190817151105 19 212 16.1 27.4 0.00 0.46 0.46 83 1004.3
20190817150605 19 216 17.7 25.7 0.00 0.46 0.46 83 1004.3
20190817150105 19 210 14.5 25.7 0.00 0.46 0.46 83 1004.3
20190817145604 20 232 20.9 37.0 0.00 0.46 0.46 82 1004.3
20190817145105 20 230 19.3 32.2 0.00 0.46 0.46 82 1004.2
20190817144604 20 228 14.5 27.4 0.00 0.46 0.46 83 1004.2
20190817144105 20 220 12.9 20.9 0.00 0.46 0.46 84 1004.3
20190817143605 19 220 11.3 19.3 0.00 0.46 0.46 83 1004.2
20190817143105 20 227 12.9 32.2 0.00 0.46 0.46 83 1004.2
20190817142604 20 204 19.3 27.4 0.00 0.46 0.46 82 1004.2
20190817142105 20 219 19.3 38.6 0.00 0.46 0.46 83 1004.2
20190817141605 20 219 14.5 29.0 0.00 0.46 0.46 84 1004.4
20190817141105 20 214 14.5 27.4 0.00 0.46 0.46 85 1004.3
20190817140605 19 229 19.3 25.7 0.00 0.46 0.46 86 1004.4
20190817140104 19 226 16.1 29.0 0.00 0.46 0.46 85 1004.4
20190817135605 19 204 16.1 27.4 0.00 0.46 0.46 85 1004.4
20190817135105 19 208 14.5 27.4 0.00 0.46 0.46 86 1004.4
20190817134605 19 201 14.5 25.7 0.00 0.46 0.46 86 1004.4
20190817134105 18 215 9.7 22.5 0.00 0.46 0.46 87 1004.2
20190817133605 18 206 11.3 22.5 0.00 0.46 0.46 86 1004.3
20190817133104 18 204 12.9 22.5 0.00 0.46 0.46 85 1004.3
20190817132604 19 205 14.5 22.5 0.00 0.46 0.46 86 1004.3
20190817132104 18 201 11.3 20.9 0.00 0.46 0.46 88 1004.3
20190817131604 18 220 11.3 22.5 0.00 0.46 0.46 88 1004.3
20190817131105 18 190 14.5 20.9 0.00 0.46 0.46 89 1004.3
20190817130605 18 212 11.3 20.9 0.00 0.46 0.46 91 1004.1
20190817130105 17 202 8.0 20.9 0.00 0.46 0.46 91 1004.1
20190817125605 17 213 12.9 20.9 0.00 0.46 0.46 91 1004.0
20190817125104 17 214 9.7 19.3 0.00 0.46 0.46 91 1004.1
20190817124605 17 193 11.3 25.7 0.00 0.46 0.46 90 1004.1
20190817124104 17 204 12.9 24.1 0.00 0.46 0.46 90 1004.1
20190817123605 17 208 11.3 19.3 0.00 0.46 0.46 90 1004.1
20190817123105 17 191 14.5 24.1 0.00 0.46 0.46 90 1004.1
20190817122605 17 205 11.3 24.1 0.00 0.46 0.46 90 1004.1
20190817122105 17 206 12.9 29.0 0.00 0.46 0.46 90 1004.1
20190817121604 17 209 14.5 25.7 0.00 0.46 0.46 90 1004.1
20190817121104 17 221 12.9 19.3 0.00 0.46 0.46 90 1004.0
20190817120605 17 214 11.3 25.7 0.00 0.46 0.46 90 1004.0
20190817120105 17 205 16.1 22.5 0.00 0.46 0.46 90 1004.0
20190817115604 17 216 14.5 22.5 0.00 0.46 0.46 90 1004.1
20190817115105 17 195 12.9 22.5 0.00 0.46 0.46 89 1004.0
20190817114605 17 193 9.7 19.3 0.00 0.46 0.46 90 1004.0
20190817114105 17 193 9.7 20.9 0.00 0.46 0.46 89 1004.0
20190817113604 17 203 11.3 19.3 0.00 0.46 0.46 89 1004.0
20190817113105 17 200 14.5 19.3 0.00 0.46 0.46 89 1004.1
20190817112605 17 189 11.3 22.5 0.00 0.46 0.46 88 1004.1
20190817112105 17 203 11.3 25.7 0.00 0.46 0.46 88 1004.1
20190817111606 17 212 14.5 24.1 0.00 0.46 0.46 87 1004.1
20190817111105 17 186 9.7 22.5 0.00 0.46 0.46 87 1004.0
20190817110605 17 176 9.7 24.1 0.00 0.46 0.46 87 1004.0
20190817110105 17 202 16.1 25.7 0.00 0.46 0.46 87 1004.0
20190817105604 17 209 16.1 25.7 0.00 0.46 0.46 86 1003.9
20190817105105 17 201 14.5 24.1 0.00 0.46 0.46 87 1003.9
20190817104605 17 179 11.3 20.9 0.00 0.46 0.46 88 1003.9
20190817104105 17 177 11.3 24.1 0.00 0.46 0.46 89 1004.0
20190817103605 17 198 11.3 20.9 0.00 0.46 0.46 89 1004.0
20190817103105 16 186 12.9 24.1 0.00 0.46 0.46 89 1004.1
20190817102605 16 189 8.0 14.5 0.00 0.46 0.46 90 1004.2
20190817102105 16 192 11.3 19.3 0.00 0.46 0.46 90 1004.2
20190817101605 16 197 11.3 27.4 0.00 0.46 0.46 90 1004.2
20190817101105 16 195 11.3 19.3 0.00 0.46 0.46 90 1004.1
20190817100605 16 200 12.9 20.9 0.00 0.46 0.46 91 1004.1
20190817100105 16 196 14.5 22.5 0.00 0.46 0.46 90 1004.2
20190817095608 16 194 14.5 24.1 0.00 0.46 0.46 91 1004.2
20190817095105 16 189 9.7 19.3 0.00 0.46 0.46 91 1004.2
20190817094605 16 202 11.3 20.9 0.00 0.46 0.46 91 1004.1
20190817094105 16 201 11.3 27.4 0.00 0.46 0.46 90 1004.1
20190817093605 16 190 14.5 27.4 0.00 0.46 0.46 90 1004.1
20190817093105 16 183 12.9 25.7 0.03 0.46 0.46 91 1004.2
20190817092604 16 203 14.5 24.1 0.03 0.46 0.46 91 1004.2
20190817092105 16 194 11.3 24.1 0.03 0.46 0.46 91 1004.1
20190817091605 16 201 12.9 22.5 0.03 0.46 0.46 91 1004.0
20190817091105 16 205 14.5 25.7 0.03 0.46 0.46 91 1004.1
20190817090605 16 193 14.5 25.7 0.03 0.46 0.46 91 1004.2
20190817090104 16 187 14.5 25.7 0.03 0.46 0.46 91 1004.1
20190817085605 16 192 14.5 20.9 0.03 0.46 0.46 91 1004.0
20190817085106 16 188 11.3 27.4 0.03 0.46 0.46 91 1004.0
20190817084605 16 200 14.5 22.5 0.03 0.46 0.46 91 1004.0
20190817084105 15 192 14.5 29.0 0.03 0.46 0.46 91 1004.0
20190817083605 15 196 12.9 20.9 0.03 0.46 0.46 91 1004.1
20190817083105 15 204 14.5 32.2 0.00 0.43 0.43 91 1004.1
20190817082605 15 189 14.5 22.5 0.00 0.43 0.43 91 1004.3
20190817082105 15 182 16.1 29.0 0.00 0.43 0.43 91 1004.3
20190817081605 15 188 14.5 22.5 0.00 0.43 0.43 92 1004.3
20190817081105 15 184 11.3 20.9 0.00 0.43 0.43 92 1004.4
20190817080605 15 174 11.3 22.5 0.00 0.43 0.43 91 1004.5
20190817080105 15 187 14.5 22.5 0.00 0.43 0.43 91 1004.5
20190817075605 15 170 14.5 24.1 0.00 0.43 0.43 91 1004.5
20190817075105 15 183 14.5 25.7 0.00 0.43 0.43 91 1004.5
20190817074605 15 170 14.5 20.9 0.03 0.43 0.43 91 1004.5
20190817074105 15 173 12.9 24.1 0.03 0.43 0.43 91 1004.5